Aérodrome :
LOGIN :

S'inscrire | Disclaimer

   EN    FR    IT 

 










Légende :    VFR   VFR Marginal   IFR   IFR Intensif   IFR Très Intensif
Visi : 
Plafond : 
>= 8 km
>= 3000ft
5 à 8 km
1000 à 3000 ft
1500m à 5 km
500 à 1000 ft
800 à 1500m
200 à 500 ft
< 800m
< 200 ft
Symboles :   Orages  Brouillard  Fortes neiges  Fortes précipitations  Vent > 20 kt
SIGMETs :   Divers  Orages  Givrage  Turbulence  Onde Orograph.  Cendres Volcan.







- Altitude de l'aérodrome : 529 ft
- Code IATA : CHR
- Voir les cartes d'approche


LFLX - Chateauroux

DERNIER METAR :
  • 180100Z AUTO 23012KT 9999 BKN008 BKN028 OVC039 06/06 Q1027 BECMG 3000 -RA

METARs EXPIRÉS :
  • 180030Z AUTO 23011KT 8000 -DZ OVC006 06/06 Q1027 BECMG 3000 -RA
  • 180000Z AUTO 24009KT 5000 -DZ BR OVC006 06/05 Q1028 TEMPO 2000 BR BKN002
  • 172330Z AUTO 24009KT 9999 OVC006 06/05 Q1029 TEMPO BKN002 BECMG 3000 -RA
  • 172300Z AUTO 23008KT 9999 SCT004 SCT012 BKN023 06/05 Q1029 TEMPO 2000 BR BKN002
  • 172230Z AUTO 23008KT 9999 OVC004 05/05 Q1028 TEMPO 2000 BR

TAF TAF LFLX
Valide du 18 à 00h jusqu'au 19 à 06h UTC


172300Z 1800/1906 22012KT 9999 BKN008
TEMPO 1800/1801 2000 BR BKN002
BECMG 1801/1803 3000 -RA OVC006
TEMPO 1803/1807 2000 -RADZ OVC002
BECMG 1810/1812 36010G20KT 9999 NSW BKN018
BECMG 1817/1820 02004KT BKN013
TEMPO 1900/1906 3000 BR BKN003
Pas de NOTAMs connus pour ce terrain.



MET'MAP, la Météo Aéronautique d'un coup d'oeil ! - Copyright ORBIFLY Décembre 2007 - Disclaimer

ORBIFLY MET'MAP TEAM :

Programmation & Développement : Alexandra Zaïnal
Conception & Développement : Baudouin d'Aumeries
Co-Programmation & Développement : Marc-Olivier Méhu
Soutien technique & logistique : Manuel Goepfert

Contact : metmap@orbifly.com




SOURCES & CREDITS :

   NOAA